Time;durP1;ratioP1;P1;durP2;ratioP2;P2;SDS_P1;SDS_P2;PMS_P1;PMS_P2;Temp;Humidity;BMP_temperature;BMP_pressure;BME280_temperature;BME280_humidity;BME280_pressure;Samples;Min_cycle;Max_cycle;Signal;HPM_P1;HPM_P2
2021/06/22 00:01:51;;;;;;;5.93;5.18;;;16.10;99.90;;;;;;4994273;28;20171;-77
2021/06/22 00:04:17;;;;;;;6.70;5.43;;;16.00;99.90;;;;;;4994134;28;20068;-77
2021/06/22 00:06:42;;;;;;;7.53;5.40;;;16.00;99.90;;;;;;4994160;28;20501;-77
2021/06/22 00:09:08;;;;;;;7.47;5.50;;;16.00;99.90;;;;;;4994287;28;20069;-77
2021/06/22 00:11:34;;;;;;;6.25;5.25;;;16.10;99.90;;;;;;4994236;28;20382;-77
2021/06/22 00:14:00;;;;;;;6.35;5.13;;;16.10;99.90;;;;;;4994115;28;20402;-77
2021/06/22 00:16:25;;;;;;;5.65;5.05;;;16.00;99.90;;;;;;4994015;28;20038;-77
2021/06/22 00:18:51;;;;;;;6.68;5.47;;;15.90;99.90;;;;;;4994164;28;20026;-77
2021/06/22 00:21:17;;;;;;;7.43;5.35;;;15.90;99.90;;;;;;4993681;28;20629;-77
2021/06/22 00:23:43;;;;;;;5.97;5.38;;;15.90;99.90;;;;;;4994114;28;20026;-77
2021/06/22 00:26:09;;;;;;;6.70;4.78;;;15.90;99.90;;;;;;4993868;28;20060;-77
2021/06/22 00:28:34;;;;;;;6.50;5.60;;;15.90;99.90;;;;;;4993606;28;20037;-77
2021/06/22 00:31:00;;;;;;;8.02;5.80;;;15.90;99.90;;;;;;4993036;28;20104;-77
2021/06/22 00:33:26;;;;;;;10.48;5.45;;;15.90;99.90;;;;;;4993373;28;20046;-77
2021/06/22 00:35:52;;;;;;;9.05;6.00;;;15.80;99.90;;;;;;4993936;28;20026;-77
2021/06/22 00:38:17;;;;;;;7.03;5.97;;;15.80;99.90;;;;;;4993662;28;20390;-77
2021/06/22 00:40:43;;;;;;;7.63;5.68;;;15.80;99.90;;;;;;4993884;28;20154;-77
2021/06/22 00:43:09;;;;;;;7.88;5.38;;;15.80;99.90;;;;;;4993675;28;20519;-77
2021/06/22 00:45:35;;;;;;;8.90;5.43;;;15.90;99.90;;;;;;4993734;28;20041;-77
2021/06/22 00:48:01;;;;;;;8.18;5.60;;;15.80;99.90;;;;;;4993683;28;20019;-77
2021/06/22 00:50:27;;;;;;;7.97;5.32;;;15.70;99.90;;;;;;4993156;28;20069;-77
2021/06/22 00:52:54;;;;;;;6.75;5.68;;;15.60;99.90;;;;;;4992969;28;20046;-77
2021/06/22 00:55:29;;;;;;;7.85;5.90;;;15.70;99.90;;;;;;4993205;28;20030;-77
2021/06/22 00:58:07;;;;;;;6.68;5.35;;;15.70;99.90;;;;;;4993601;28;20026;-77
2021/06/22 01:00:38;;;;;;;8.23;5.25;;;15.70;99.90;;;;;;4993333;28;20026;-77
2021/06/22 01:03:04;;;;;;;7.00;5.10;;;15.80;99.90;;;;;;4993230;28;20077;-77
2021/06/22 01:05:32;;;;;;;6.03;5.43;;;15.80;99.90;;;;;;4993300;28;20023;-76
2021/06/22 01:07:59;;;;;;;6.72;5.75;;;15.80;99.90;;;;;;4993119;28;20030;-77
2021/06/22 01:10:27;;;;;;;8.73;5.85;;;15.80;99.90;;;;;;4992915;28;20352;-77
2021/06/22 01:12:54;;;;;;;7.30;6.22;;;15.80;99.90;;;;;;4992965;28;20085;-77
2021/06/22 01:15:25;;;;;;;7.65;6.07;;;15.80;99.90;;;;;;4992915;28;20037;-77
2021/06/22 01:53:59;;;;;;;8.30;6.28;;;16.00;99.90;;;;;;5274720;23;20061;-77
2021/06/22 01:56:27;;;;;;;9.57;6.40;;;16.00;99.90;;;;;;5031937;28;20025;-77
2021/06/22 01:58:54;;;;;;;7.50;6.53;;;16.00;99.90;;;;;;5031652;28;20030;-78
2021/06/22 02:01:20;;;;;;;7.88;6.57;;;16.00;99.90;;;;;;5030560;28;20432;-77
2021/06/22 02:03:46;;;;;;;6.95;6.22;;;16.00;99.90;;;;;;5031533;28;20030;-78
2021/06/22 02:06:13;;;;;;;7.97;6.47;;;16.00;99.90;;;;;;5032085;28;20029;-77
2021/06/22 02:08:39;;;;;;;7.43;6.07;;;16.00;99.90;;;;;;5031616;28;20113;-78
2021/06/22 02:11:05;;;;;;;7.28;6.20;;;16.10;99.90;;;;;;5031702;28;20026;-78
2021/06/22 02:13:32;;;;;;;9.35;6.50;;;16.00;99.90;;;;;;5031529;28;20026;-77
2021/06/22 02:15:57;;;;;;;12.35;6.82;;;16.00;99.90;;;;;;5031630;28;20542;-77
2021/06/22 02:18:25;;;;;;;6.85;6.15;;;16.10;99.90;;;;;;5031833;28;20487;-77
2021/06/22 02:20:52;;;;;;;7.13;6.40;;;16.00;99.90;;;;;;5031576;28;20021;-77
2021/06/22 02:23:18;;;;;;;7.20;6.47;;;16.10;99.90;;;;;;5031494;28;20025;-77
2021/06/22 02:25:44;;;;;;;9.25;6.28;;;16.10;99.90;;;;;;5031487;28;20025;-77
2021/06/22 02:28:16;;;;;;;8.15;6.80;;;16.10;99.90;;;;;;5031554;28;20018;-77
2021/06/22 02:30:43;;;;;;;6.60;5.85;;;16.10;99.90;;;;;;5031401;28;20472;-77
2021/06/22 02:33:09;;;;;;;8.98;6.65;;;16.10;99.90;;;;;;5031382;28;20026;-77
2021/06/22 02:35:36;;;;;;;12.75;7.28;;;16.10;99.90;;;;;;5031787;28;20060;-77
2021/06/22 02:38:03;;;;;;;8.02;6.38;;;16.20;99.90;;;;;;5031264;28;20427;-77
2021/06/22 02:40:29;;;;;;;9.38;6.80;;;16.20;99.90;;;;;;5031530;28;20022;-77
2021/06/22 02:42:55;;;;;;;8.13;6.80;;;16.20;99.90;;;;;;5029996;28;20026;-77
2021/06/22 02:45:21;;;;;;;7.10;6.20;;;16.20;99.90;;;;;;5031522;28;20031;-77
2021/06/22 02:47:47;;;;;;;7.32;6.60;;;16.20;99.90;;;;;;5031257;28;20385;-77
2021/06/22 02:50:15;;;;;;;7.70;6.70;;;16.30;99.90;;;;;;5031295;28;20026;-77
2021/06/22 02:52:41;;;;;;;8.43;6.32;;;16.30;99.90;;;;;;5024893;28;20457;-78
2021/06/22 02:55:18;;;;;;;8.00;7.20;;;16.30;99.90;;;;;;5015059;28;20038;-77
2021/06/22 02:57:48;;;;;;;7.63;6.20;;;16.20;99.90;;;;;;5015054;28;20022;-77
2021/06/22 03:00:17;;;;;;;8.10;6.55;;;16.20;99.90;;;;;;5014979;28;20037;-77
2021/06/22 03:02:42;;;;;;;11.68;7.43;;;16.20;99.90;;;;;;5015125;28;20029;-78
2021/06/22 03:05:09;;;;;;;10.25;7.75;;;16.20;99.90;;;;;;5014987;28;20022;-77
2021/06/22 03:07:35;;;;;;;9.93;7.53;;;16.20;99.90;;;;;;5014837;28;20038;-77
2021/06/22 03:10:00;;;;;;;8.77;7.38;;;16.20;99.90;;;;;;5014715;28;20079;-77
2021/06/22 03:12:26;;;;;;;12.75;7.22;;;16.30;99.90;;;;;;5014771;28;20026;-77
2021/06/22 03:14:52;;;;;;;11.65;8.07;;;16.20;99.90;;;;;;5014617;28;20044;-77
2021/06/22 03:17:18;;;;;;;8.60;7.72;;;16.30;99.90;;;;;;5015141;28;20029;-77
2021/06/22 03:19:43;;;;;;;9.00;8.00;;;16.30;99.90;;;;;;5014496;28;20029;-77
2021/06/22 03:22:09;;;;;;;9.13;7.53;;;16.30;99.90;;;;;;5014663;28;20029;-78
2021/06/22 03:24:35;;;;;;;10.70;8.30;;;16.30;99.90;;;;;;5014597;28;20220;-77
2021/06/22 03:27:00;;;;;;;10.60;7.68;;;16.30;99.90;;;;;;5014525;28;20083;-77
2021/06/22 03:29:26;;;;;;;8.00;7.18;;;16.30;99.90;;;;;;5014789;28;20436;-77
2021/06/22 03:31:52;;;;;;;9.40;7.50;;;16.30;99.90;;;;;;5014638;28;20158;-77
2021/06/22 03:34:18;;;;;;;7.40;6.70;;;16.30;99.90;;;;;;5014642;28;20045;-77
2021/06/22 03:36:44;;;;;;;12.05;7.45;;;16.30;99.90;;;;;;5014338;28;20405;-78
2021/06/22 03:39:10;;;;;;;8.23;7.15;;;16.40;99.90;;;;;;5014567;28;20030;-77
2021/06/22 03:41:37;;;;;;;10.20;8.18;;;16.40;99.90;;;;;;5014911;28;20026;-77
2021/06/22 03:44:03;;;;;;;7.18;6.47;;;16.40;99.90;;;;;;5014019;28;20470;-77
2021/06/22 03:46:29;;;;;;;10.20;7.00;;;16.40;99.90;;;;;;5014638;28;20022;-77
2021/06/22 03:48:55;;;;;;;9.23;6.90;;;16.40;99.90;;;;;;5014289;28;20034;-77
2021/06/22 03:51:21;;;;;;;13.82;7.20;;;16.40;99.90;;;;;;5012911;28;20489;-77
2021/06/22 03:53:48;;;;;;;13.43;6.82;;;16.40;99.90;;;;;;5013603;28;20049;-77
2021/06/22 03:56:14;;;;;;;7.28;6.57;;;16.50;99.90;;;;;;5014003;28;20026;-77
2021/06/22 03:58:41;;;;;;;9.63;7.18;;;16.50;99.90;;;;;;5014259;28;20164;-77
2021/06/22 04:01:07;;;;;;;10.32;7.25;;;16.50;99.90;;;;;;5012606;28;20565;-78
2021/06/22 04:03:33;;;;;;;7.95;7.10;;;16.50;99.90;;;;;;5013867;28;20337;-77
2021/06/22 04:06:00;;;;;;;12.13;7.72;;;16.50;99.90;;;;;;5013684;28;20045;-77
2021/06/22 04:08:27;;;;;;;8.38;7.22;;;16.50;99.90;;;;;;5013675;28;20040;-77
2021/06/22 04:10:53;;;;;;;8.38;7.47;;;16.50;99.90;;;;;;5013569;28;20025;-77
2021/06/22 04:13:19;;;;;;;9.70;6.88;;;16.50;99.90;;;;;;5013772;28;20032;-77
2021/06/22 04:15:45;;;;;;;8.18;6.90;;;16.50;99.90;;;;;;5013484;28;20481;-78
2021/06/22 04:18:11;;;;;;;8.07;6.50;;;16.60;99.90;;;;;;5013685;28;20032;-77
2021/06/22 04:20:38;;;;;;;8.70;6.88;;;16.60;99.90;;;;;;5013990;28;20554;-78
2021/06/22 04:23:05;;;;;;;7.93;6.85;;;16.60;99.90;;;;;;5013724;28;20041;-78
2021/06/22 04:25:31;;;;;;;7.82;6.90;;;16.60;99.90;;;;;;5012318;28;20053;-78
2021/06/22 04:28:00;;;;;;;10.38;6.70;;;16.60;99.90;;;;;;5013343;28;20473;-78
2021/06/22 04:30:25;;;;;;;7.80;6.32;;;16.60;99.90;;;;;;5013398;28;20066;-77
2021/06/22 04:32:51;;;;;;;6.75;6.05;;;16.70;99.90;;;;;;5013059;28;20053;-78
2021/06/22 04:35:17;;;;;;;7.05;6.07;;;16.70;99.90;;;;;;5013181;28;20116;-77
2021/06/22 04:37:42;;;;;;;6.55;5.22;;;16.70;99.90;;;;;;5013426;28;20026;-77
2021/06/22 04:40:10;;;;;;;8.18;5.90;;;16.80;99.90;;;;;;5013033;28;20025;-78
2021/06/22 04:42:37;;;;;;;10.60;6.45;;;16.80;99.90;;;;;;5011829;28;20057;-77
2021/06/22 04:45:04;;;;;;;7.15;5.28;;;16.80;99.90;;;;;;5011595;28;20080;-78
2021/06/22 04:47:29;;;;;;;6.82;5.47;;;16.80;99.90;;;;;;5013189;28;20050;-77
2021/06/22 04:49:55;;;;;;;8.13;5.45;;;16.80;99.90;;;;;;5012737;28;20061;-77
2021/06/22 04:52:21;;;;;;;6.63;5.75;;;16.80;99.90;;;;;;5011575;28;20030;-78
2021/06/22 04:54:47;;;;;;;7.00;6.13;;;16.80;99.90;;;;;;5012444;28;20133;-78
2021/06/22 04:57:17;;;;;;;8.40;5.80;;;16.80;99.90;;;;;;5013094;28;20018;-77
2021/06/22 04:59:43;;;;;;;7.07;6.38;;;16.80;99.90;;;;;;5012785;28;20505;-78
2021/06/22 05:02:09;;;;;;;8.23;5.80;;;16.80;99.90;;;;;;5012584;28;20080;-78
2021/06/22 05:04:35;;;;;;;7.57;5.88;;;16.80;99.90;;;;;;5012617;28;20176;-77
2021/06/22 05:07:01;;;;;;;7.35;5.93;;;16.80;99.90;;;;;;5012481;28;20022;-78
2021/06/22 05:09:26;;;;;;;8.13;5.05;;;16.80;99.90;;;;;;5012513;28;20036;-78
2021/06/22 05:11:52;;;;;;;6.00;5.40;;;16.80;99.90;;;;;;5012729;28;20022;-77
2021/06/22 05:14:18;;;;;;;10.73;5.30;;;16.80;99.90;;;;;;5012336;28;20044;-77
2021/06/22 05:16:44;;;;;;;8.40;5.55;;;16.80;99.90;;;;;;5011982;28;20113;-77
2021/06/22 05:19:10;;;;;;;7.47;5.40;;;16.90;99.90;;;;;;5012232;28;20061;-78
2021/06/22 05:21:36;;;;;;;9.98;5.85;;;16.90;99.90;;;;;;5012497;28;20088;-78
2021/06/22 05:24:02;;;;;;;9.82;5.32;;;16.90;99.90;;;;;;5012473;28;20080;-78
2021/06/22 05:26:28;;;;;;;8.20;5.60;;;16.90;99.90;;;;;;5012708;28;20026;-78
2021/06/22 05:28:54;;;;;;;7.90;5.90;;;16.90;99.90;;;;;;5012507;28;20488;-77
2021/06/22 05:31:19;;;;;;;11.48;6.50;;;17.00;99.90;;;;;;5012323;28;20076;-78
2021/06/22 05:33:45;;;;;;;12.05;7.93;;;16.90;99.90;;;;;;5012102;28;20029;-78
2021/06/22 05:36:11;;;;;;;10.88;7.10;;;17.00;99.90;;;;;;5012222;28;20022;-78
2021/06/22 05:38:37;;;;;;;11.65;6.88;;;17.00;99.90;;;;;;5012384;28;20018;-78
2021/06/22 05:41:02;;;;;;;12.27;6.53;;;17.00;99.90;;;;;;5012174;28;20022;-78
2021/06/22 05:43:28;;;;;;;8.60;6.82;;;17.00;99.90;;;;;;5012091;28;20436;-78
2021/06/22 05:45:54;;;;;;;12.05;7.28;;;17.00;99.90;;;;;;5012126;28;20101;-78
2021/06/22 05:48:20;;;;;;;8.52;6.20;;;17.00;99.90;;;;;;5012551;28;20109;-77
2021/06/22 05:50:46;;;;;;;7.75;6.53;;;17.00;99.90;;;;;;5012082;28;20029;-77
2021/06/22 05:53:11;;;;;;;12.13;7.75;;;16.90;99.90;;;;;;5011531;28;20080;-77
2021/06/22 05:55:37;;;;;;;9.43;6.10;;;17.00;99.90;;;;;;5012051;28;20034;-77
2021/06/22 05:58:03;;;;;;;11.98;7.50;;;17.00;99.90;;;;;;5010733;28;20616;-77
2021/06/22 06:00:31;;;;;;;9.02;6.07;;;17.00;99.90;;;;;;5012232;28;20032;-77
2021/06/22 06:02:57;;;;;;;10.02;6.47;;;17.00;99.90;;;;;;5011922;28;20269;-77
2021/06/22 06:05:23;;;;;;;7.82;6.30;;;17.10;99.90;;;;;;5011970;28;20154;-78
2021/06/22 06:07:49;;;;;;;7.00;5.75;;;17.10;99.90;;;;;;5011955;28;20481;-78
2021/06/22 06:10:16;;;;;;;9.25;5.85;;;17.20;99.90;;;;;;5011893;28;20038;-78
2021/06/22 06:12:42;;;;;;;6.10;5.10;;;17.20;99.90;;;;;;5012245;28;20018;-78
2021/06/22 06:15:09;;;;;;;6.80;5.63;;;17.20;99.90;;;;;;5011682;28;20413;-78
2021/06/22 06:17:36;;;;;;;7.18;5.97;;;17.20;99.90;;;;;;5012011;28;20771;-78
2021/06/22 06:20:06;;;;;;;8.07;5.32;;;17.30;99.90;;;;;;5011709;28;20432;-78
2021/06/22 06:22:32;;;;;;;6.50;5.65;;;17.30;99.90;;;;;;5011812;28;20088;-78
2021/06/22 06:24:59;;;;;;;6.88;6.03;;;17.30;99.90;;;;;;5011649;28;20030;-78
2021/06/22 06:27:37;;;;;;;7.43;4.88;;;17.30;99.90;;;;;;5012129;28;20033;-78
2021/06/22 06:30:13;;;;;;;5.82;4.88;;;17.30;99.90;;;;;;5015597;28;20022;-78
2021/06/22 06:32:38;;;;;;;6.90;5.18;;;17.30;99.90;;;;;;5015840;28;20445;-78
2021/06/22 06:35:05;;;;;;;7.47;5.45;;;17.30;99.90;;;;;;5015466;28;20061;-78
2021/06/22 06:37:32;;;;;;;6.20;4.78;;;17.30;99.90;;;;;;5015752;28;20026;-79
2021/06/22 06:39:57;;;;;;;5.90;4.80;;;17.30;99.90;;;;;;5015211;28;20476;-78
2021/06/22 06:42:23;;;;;;;8.80;5.40;;;17.30;99.90;;;;;;5015435;28;20113;-78
2021/06/22 06:44:49;;;;;;;6.07;4.82;;;17.30;99.90;;;;;;5015279;28;20025;-78
2021/06/22 06:47:14;;;;;;;6.63;5.25;;;17.30;99.90;;;;;;5015232;28;20022;-78
2021/06/22 06:49:40;;;;;;;5.45;4.95;;;17.40;99.90;;;;;;5015481;28;20073;-78
2021/06/22 06:52:07;;;;;;;5.78;5.13;;;17.40;99.90;;;;;;5014995;28;20025;-78
2021/06/22 06:54:33;;;;;;;8.40;5.93;;;17.40;99.90;;;;;;5014833;28;20406;-78
2021/06/22 06:56:59;;;;;;;6.15;5.55;;;17.40;99.90;;;;;;5014991;28;20025;-78
2021/06/22 06:59:25;;;;;;;6.63;5.93;;;17.40;99.90;;;;;;5015033;28;20026;-79
2021/06/22 07:01:51;;;;;;;7.57;6.15;;;17.40;99.90;;;;;;5014920;28;20030;-78
2021/06/22 07:04:17;;;;;;;6.30;5.63;;;17.50;99.90;;;;;;5014824;28;20026;-78
2021/06/22 07:06:43;;;;;;;7.25;5.93;;;17.50;99.90;;;;;;5015087;28;20028;-78
2021/06/22 07:09:09;;;;;;;8.60;6.78;;;17.50;99.90;;;;;;5014618;28;20385;-78
2021/06/22 07:11:35;;;;;;;6.70;5.80;;;17.50;99.90;;;;;;5014988;28;20092;-78
2021/06/22 07:14:01;;;;;;;8.45;6.85;;;17.60;99.90;;;;;;5014602;28;20033;-78
2021/06/22 07:16:27;;;;;;;7.88;6.72;;;17.60;99.90;;;;;;5014935;28;20469;-78
2021/06/22 07:18:52;;;;;;;12.82;7.85;;;17.60;99.90;;;;;;5014534;28;20029;-79
2021/06/22 07:21:19;;;;;;;10.50;8.05;;;17.70;99.90;;;;;;5013760;28;20022;-79
2021/06/22 07:23:45;;;;;;;9.45;8.52;;;17.70;99.90;;;;;;5014809;28;20096;-78
2021/06/22 07:26:11;;;;;;;9.73;8.52;;;17.80;99.90;;;;;;5014333;28;20413;-78
2021/06/22 07:28:37;;;;;;;10.80;8.90;;;17.80;99.90;;;;;;5014609;28;20022;-79
2021/06/22 07:31:12;;;;;;;10.30;9.20;;;17.90;99.90;;;;;;5014213;28;20076;-78
2021/06/22 07:33:39;;;;;;;8.90;7.97;;;17.90;99.90;;;;;;5014464;28;20057;-78
2021/06/22 07:36:07;;;;;;;12.10;9.35;;;17.90;99.90;;;;;;5014511;28;20034;-78
2021/06/22 07:38:33;;;;;;;11.13;9.52;;;17.80;99.90;;;;;;5013787;28;20026;-78
2021/06/22 07:40:58;;;;;;;9.88;8.32;;;17.80;99.90;;;;;;5014087;28;20026;-78
2021/06/22 07:43:24;;;;;;;10.10;9.10;;;17.80;99.90;;;;;;5014338;28;20026;-78
2021/06/22 07:45:50;;;;;;;9.27;8.38;;;17.90;99.90;;;;;;5014118;28;20113;-78
2021/06/22 07:48:16;;;;;;;9.68;8.32;;;17.90;99.90;;;;;;5014066;28;20076;-78
2021/06/22 07:50:42;;;;;;;12.35;9.60;;;17.90;99.90;;;;;;5014069;28;20026;-78
2021/06/22 07:53:08;;;;;;;14.50;9.93;;;17.90;99.90;;;;;;5013575;28;20042;-79
2021/06/22 07:55:35;;;;;;;12.13;10.38;;;17.90;99.90;;;;;;5014030;28;20105;-78
2021/06/22 07:58:01;;;;;;;13.38;11.98;;;17.90;99.90;;;;;;5013856;28;20033;-78
2021/06/22 08:00:44;;;;;;;13.02;11.75;;;17.90;99.90;;;;;;5013947;28;20033;-78
2021/06/22 08:03:13;;;;;;;13.88;12.32;;;17.90;99.90;;;;;;5013654;28;20615;-78
2021/06/22 08:05:40;;;;;;;13.02;11.73;;;17.90;99.90;;;;;;5013883;28;20565;-79
2021/06/22 08:08:07;;;;;;;13.55;11.85;;;17.90;99.90;;;;;;5013953;28;20032;-78
2021/06/22 08:10:34;;;;;;;13.43;12.02;;;17.90;99.90;;;;;;5013950;28;20257;-78
2021/06/22 08:13:00;;;;;;;12.95;11.25;;;17.90;99.90;;;;;;5013577;28;20028;-78
2021/06/22 08:15:27;;;;;;;12.77;11.48;;;17.90;99.90;;;;;;5013419;28;20030;-78
2021/06/22 08:17:53;;;;;;;12.07;9.57;;;17.80;99.90;;;;;;5013598;28;20025;-78
2021/06/22 08:20:20;;;;;;;14.98;9.38;;;17.80;99.90;;;;;;5013388;28;20104;-78
2021/06/22 08:22:51;;;;;;;10.38;8.65;;;17.80;99.90;;;;;;5013498;28;20072;-78
2021/06/22 08:25:18;;;;;;;7.25;6.43;;;17.80;99.90;;;;;;5013520;28;20025;-78
2021/06/22 08:27:45;;;;;;;8.77;7.07;;;17.70;99.90;;;;;;5013518;28;20030;-78
2021/06/22 08:30:11;;;;;;;7.70;5.80;;;17.70;99.90;;;;;;5013135;28;20030;-78
2021/06/22 08:32:37;;;;;;;6.68;6.00;;;17.70;99.90;;;;;;5013401;28;20025;-78
2021/06/22 08:35:03;;;;;;;8.25;5.28;;;17.70;99.90;;;;;;5013402;28;20100;-78
2021/06/22 08:37:29;;;;;;;8.57;5.70;;;17.70;99.90;;;;;;5013284;28;20029;-78
2021/06/22 08:39:55;;;;;;;6.68;5.10;;;17.70;99.90;;;;;;5013406;28;20473;-78
2021/06/22 08:42:23;;;;;;;5.15;4.63;;;17.60;99.90;;;;;;5013151;28;20026;-78
2021/06/22 08:44:50;;;;;;;6.63;4.13;;;17.70;99.90;;;;;;5012170;28;20033;-78
2021/06/22 08:47:24;;;;;;;5.55;3.55;;;17.60;99.90;;;;;;5012993;28;20548;-78
2021/06/22 08:49:52;;;;;;;3.67;3.38;;;17.60;99.90;;;;;;5013185;28;20448;-78
2021/06/22 08:52:29;;;;;;;5.82;3.83;;;17.60;99.90;;;;;;5012277;28;20018;-78
2021/06/22 08:54:55;;;;;;;6.10;3.83;;;17.60;99.90;;;;;;5012706;28;20064;-77
2021/06/22 08:57:22;;;;;;;5.82;3.70;;;17.50;99.90;;;;;;5013133;28;20046;-77
2021/06/22 08:59:48;;;;;;;4.60;4.00;;;17.50;99.90;;;;;;5012878;28;20029;-72
2021/06/22 09:02:15;;;;;;;2.55;2.30;;;17.50;99.90;;;;;;5012985;28;20022;-75
2021/06/22 09:04:41;;;;;;;5.30;2.13;;;17.70;99.90;;;;;;5012967;28;20535;-68
2021/06/22 09:07:07;;;;;;;3.55;3.25;;;17.90;99.90;;;;;;5012688;28;20026;-72
2021/06/22 09:09:37;;;;;;;4.25;3.50;;;18.10;99.90;;;;;;5012706;28;20022;-72
2021/06/22 09:12:08;;;;;;;4.57;3.90;;;18.40;99.90;;;;;;5012655;28;20021;-71
2021/06/22 09:14:40;;;;;;;5.80;3.65;;;18.30;99.90;;;;;;5012478;28;20033;-73
2021/06/22 09:17:06;;;;;;;6.40;3.35;;;18.20;99.90;;;;;;5012744;28;20022;-71
2021/06/22 09:19:34;;;;;;;7.05;3.00;;;18.10;99.90;;;;;;5012507;28;20040;-71
2021/06/22 09:22:17;;;;;;;7.38;3.35;;;18.10;99.90;;;;;;5011534;28;20026;-72
2021/06/22 09:25:07;;;;;;;4.53;3.25;;;18.00;99.90;;;;;;5000553;28;20022;-73
2021/06/22 09:28:05;;;;;;;4.15;3.17;;;18.00;99.90;;;;;;4993115;28;20112;-73
2021/06/22 09:30:51;;;;;;;3.47;3.17;;;17.90;99.90;;;;;;4970721;28;20057;-73
2021/06/22 09:33:27;;;;;;;5.15;2.30;;;17.70;99.90;;;;;;4992738;28;20061;-73
2021/06/22 09:36:10;;;;;;;3.85;1.63;;;17.50;99.90;;;;;;4992878;28;20030;-73
2021/06/22 09:38:52;;;;;;;3.45;1.20;;;17.20;99.90;;;;;;4992698;28;20061;-73
2021/06/22 09:41:36;;;;;;;3.38;1.10;;;16.90;99.90;;;;;;4992854;28;20030;-74
2021/06/22 09:44:07;;;;;;;0.70;0.70;;;16.60;99.90;;;;;;4992555;28;20026;-74
2021/06/22 09:46:42;;;;;;;6.43;0.55;;;16.50;99.90;;;;;;4992643;28;20422;-74
2021/06/22 09:49:23;;;;;;;9.93;0.60;;;16.40;99.90;;;;;;4992516;28;20026;-73
2021/06/22 09:54:24;;;;;;;3.13;0.40;;;16.20;99.90;;;;;;4992095;28;20557;-74
2021/06/22 09:56:53;;;;;;;5.05;0.50;;;16.10;99.90;;;;;;4992182;28;20568;-78
2021/06/22 09:59:18;;;;;;;4.00;0.60;;;15.90;99.90;;;;;;4992308;28;20470;-77
2021/06/22 10:01:44;;;;;;;0.57;0.47;;;15.80;99.90;;;;;;4992387;28;20073;-76
2021/06/22 10:04:24;;;;;;;6.53;0.50;;;15.80;99.90;;;;;;4996290;28;20031;-76
2021/06/22 10:06:53;;;;;;;1.40;0.40;;;15.80;99.90;;;;;;4996602;28;20034;-76
2021/06/22 10:09:24;;;;;;;2.55;0.60;;;15.80;99.90;;;;;;4996184;28;20042;-76
2021/06/22 10:11:58;;;;;;;3.45;0.73;;;15.80;99.90;;;;;;4996448;28;20474;-77
2021/06/22 10:14:49;;;;;;;9.75;0.70;;;15.80;99.90;;;;;;4995817;28;20043;-75
2021/06/22 10:17:19;;;;;;;1.65;0.60;;;15.80;99.90;;;;;;4989785;28;20030;-76
2021/06/22 10:19:54;;;;;;;4.60;0.52;;;15.80;99.90;;;;;;4996063;28;20046;-76
2021/06/22 10:22:23;;;;;;;1.80;0.55;;;15.80;99.90;;;;;;4995988;28;20030;-75
2021/06/22 10:24:49;;;;;;;0.90;0.57;;;15.80;99.90;;;;;;4996080;28;20386;-76
2021/06/22 10:27:20;;;;;;;2.25;0.70;;;15.80;99.90;;;;;;4996067;28;20037;-76
2021/06/22 10:29:47;;;;;;;1.60;0.70;;;15.80;99.90;;;;;;4996030;28;20027;-76
2021/06/22 10:32:14;;;;;;;3.38;0.80;;;15.80;99.90;;;;;;4995782;28;20023;-74
2021/06/22 10:34:45;;;;;;;3.58;0.60;;;15.80;99.90;;;;;;4995800;28;20058;-74
2021/06/22 10:37:21;;;;;;;2.80;0.60;;;15.80;99.90;;;;;;4995879;28;20022;-74
2021/06/22 10:39:51;;;;;;;6.53;0.85;;;15.70;99.90;;;;;;4995708;28;20034;-76
2021/06/22 10:42:18;;;;;;;10.57;1.13;;;15.70;99.90;;;;;;4995525;28;20030;-75
2021/06/22 10:45:04;;;;;;;2.20;0.77;;;15.70;99.90;;;;;;4995427;28;20033;-74
2021/06/22 10:47:38;;;;;;;1.20;0.60;;;15.80;99.90;;;;;;4994697;28;20450;-76
2021/06/22 10:50:22;;;;;;;0.90;0.60;;;16.40;99.90;;;;;;4995633;28;20022;-80
2021/06/22 10:53:06;;;;;;;0.75;0.40;;;16.50;99.90;;;;;;4995357;28;20030;-79
2021/06/22 10:55:37;;;;;;;1.52;0.50;;;16.20;99.90;;;;;;4995504;28;20054;-80
2021/06/22 10:58:03;;;;;;;1.77;0.60;;;15.90;99.90;;;;;;4995720;28;20054;-79
2021/06/22 11:00:42;;;;;;;2.65;0.60;;;15.70;99.90;;;;;;4995550;28;20026;-79
2021/06/22 11:03:22;;;;;;;1.70;0.60;;;15.70;99.90;;;;;;4995647;28;20026;-79
2021/06/22 11:06:00;;;;;;;2.35;0.50;;;15.60;99.90;;;;;;4995404;28;20030;-79
2021/06/22 11:08:33;;;;;;;1.40;0.60;;;15.50;99.90;;;;;;4995199;28;20034;-79
2021/06/22 11:10:59;;;;;;;1.80;0.70;;;15.50;99.90;;;;;;4993974;28;20037;-79
2021/06/22 11:13:40;;;;;;;4.25;0.60;;;15.60;99.90;;;;;;4994268;28;20026;-79
2021/06/22 11:16:21;;;;;;;0.82;0.60;;;15.60;99.90;;;;;;4995272;28;20370;-79
2021/06/22 11:18:55;;;;;;;0.75;0.50;;;15.60;99.90;;;;;;4995267;28;20355;-79
2021/06/22 11:21:22;;;;;;;1.20;0.50;;;15.70;99.90;;;;;;4995028;28;20107;-79
2021/06/22 11:24:05;;;;;;;0.90;0.65;;;15.60;99.90;;;;;;4995200;28;20481;-79
2021/06/22 11:26:53;;;;;;;0.50;0.50;;;15.80;99.90;;;;;;4995031;28;20080;-79
2021/06/22 11:29:20;;;;;;;2.28;0.70;;;15.80;99.90;;;;;;4994910;28;20020;-79
2021/06/22 11:31:53;;;;;;;3.63;0.47;;;15.90;99.90;;;;;;4995167;28;20109;-78
2021/06/22 11:34:30;;;;;;;2.42;0.50;;;16.00;99.90;;;;;;4995059;28;20046;-79
2021/06/22 11:36:58;;;;;;;1.95;0.60;;;15.90;99.90;;;;;;4994814;28;20033;-79
2021/06/22 11:39:26;;;;;;;1.25;0.50;;;15.90;99.90;;;;;;4994682;28;20029;-79
2021/06/22 11:42:14;;;;;;;3.33;0.50;;;15.90;99.90;;;;;;4994626;28;20022;-79
2021/06/22 11:45:15;;;;;;;1.63;0.70;;;15.90;99.90;;;;;;4994822;28;20023;-79
2021/06/22 11:47:47;;;;;;;2.75;0.70;;;15.90;99.90;;;;;;4972026;28;20406;-79
2021/06/22 11:50:13;;;;;;;2.15;0.75;;;15.90;99.90;;;;;;4994335;28;20057;-79
2021/06/22 11:52:44;;;;;;;7.13;0.73;;;15.90;99.90;;;;;;4994436;28;20558;-79
2021/06/22 11:55:18;;;;;;;1.00;0.63;;;15.90;99.90;;;;;;4994155;28;20034;-79
2021/06/22 11:57:48;;;;;;;1.88;0.50;;;15.90;99.90;;;;;;4994759;28;20457;-79
2021/06/22 12:00:17;;;;;;;1.65;0.50;;;15.90;99.90;;;;;;4994484;28;20433;-79
2021/06/22 12:02:50;;;;;;;0.60;0.60;;;15.90;99.90;;;;;;4993058;28;20367;-78
2021/06/22 12:05:18;;;;;;;4.22;0.40;;;15.90;99.90;;;;;;4994173;28;20027;-79
2021/06/22 12:07:53;;;;;;;1.23;0.50;;;15.90;99.90;;;;;;4994592;28;20026;-79
2021/06/22 12:10:24;;;;;;;2.58;0.55;;;15.80;99.90;;;;;;4992629;28;20037;-79
2021/06/22 12:12:51;;;;;;;2.58;1.20;;;15.80;99.90;;;;;;4994098;28;20394;-79
2021/06/22 12:15:35;;;;;;;0.43;0.43;;;15.80;99.90;;;;;;4994114;28;20058;-78
2021/06/22 12:18:01;;;;;;;1.70;0.40;;;15.90;99.90;;;;;;4992973;28;20105;-78
2021/06/22 12:20:30;;;;;;;0.85;0.70;;;15.90;99.90;;;;;;4993914;28;20439;-78
2021/06/22 12:23:12;;;;;;;0.52;0.40;;;16.00;99.90;;;;;;4993928;28;20034;-78
2021/06/22 12:25:49;;;;;;;0.68;0.55;;;16.00;99.90;;;;;;4993804;28;20019;-78
2021/06/22 12:28:16;;;;;;;1.65;0.90;;;15.90;99.90;;;;;;4993804;28;20042;-78
2021/06/22 12:30:47;;;;;;;0.43;0.43;;;16.00;99.90;;;;;;4993727;28;20019;-78
2021/06/22 12:33:14;;;;;;;4.53;0.70;;;16.00;99.90;;;;;;4993559;28;20066;-79
2021/06/22 12:35:42;;;;;;;1.08;0.70;;;16.00;99.90;;;;;;4994108;28;20035;-79
2021/06/22 12:38:10;;;;;;;1.75;0.60;;;16.00;99.90;;;;;;4993966;28;20524;-79
2021/06/22 12:40:41;;;;;;;1.38;0.65;;;16.00;99.90;;;;;;4993505;28;20114;-79
2021/06/22 12:43:07;;;;;;;2.00;0.70;;;16.00;99.90;;;;;;4993854;28;20422;-79
2021/06/22 12:45:32;;;;;;;0.90;0.63;;;16.00;99.90;;;;;;4993272;28;20026;-79
2021/06/22 12:47:59;;;;;;;1.65;0.70;;;16.00;99.90;;;;;;4993596;28;20027;-79
2021/06/22 12:50:31;;;;;;;1.48;0.63;;;16.00;99.90;;;;;;4991958;28;20027;-79
2021/06/22 12:52:57;;;;;;;0.63;0.63;;;16.00;99.90;;;;;;4993137;28;20165;-79
2021/06/22 12:55:47;;;;;;;1.02;0.63;;;16.10;99.90;;;;;;4993214;28;20045;-79
2021/06/22 12:58:15;;;;;;;1.85;0.57;;;16.10;99.90;;;;;;4993332;28;20474;-79
2021/06/22 13:00:46;;;;;;;1.42;0.55;;;16.10;99.90;;;;;;4993213;28;20041;-79
2021/06/22 13:03:15;;;;;;;1.23;0.68;;;16.10;99.90;;;;;;4993077;28;20027;-75
2021/06/22 13:05:44;;;;;;;0.63;0.55;;;16.20;99.90;;;;;;4993136;28;20109;-73
2021/06/22 13:08:21;;;;;;;0.75;0.60;;;16.60;99.90;;;;;;4993014;28;20030;-76
2021/06/22 13:10:52;;;;;;;0.98;0.50;;;17.10;99.90;;;;;;4993164;28;20077;-77
2021/06/22 13:13:29;;;;;;;3.20;0.60;;;17.00;99.90;;;;;;4992921;28;20088;-77
2021/06/22 13:16:09;;;;;;;0.98;0.50;;;16.80;99.90;;;;;;4993298;28;20030;-80
2021/06/22 13:18:54;;;;;;;1.95;0.50;;;16.60;99.90;;;;;;4992738;28;20122;-81
2021/06/22 13:21:20;;;;;;;1.42;0.65;;;16.50;99.90;;;;;;4990399;28;20077;-81
2021/06/22 13:23:45;;;;;;;1.00;0.65;;;16.30;99.90;;;;;;4992974;28;20422;-81
2021/06/22 13:26:11;;;;;;;0.90;0.52;;;16.30;99.90;;;;;;4992770;28;20026;-81
2021/06/22 13:28:37;;;;;;;1.70;0.60;;;16.30;99.90;;;;;;4991946;28;20022;-81
2021/06/22 13:31:13;;;;;;;2.28;0.50;;;16.30;99.90;;;;;;4992862;28;20544;-78
2021/06/22 13:33:38;;;;;;;0.50;0.50;;;16.30;99.90;;;;;;4993046;28;20026;-81